Avon, North Carolina
Current Conditions -  °F | °C
As of 1:03 AM on Wednesday 26 Nov 2014 (Local Time) from KHSE Reporting Station
Light Rain Light Rain  
Wind Chill: 58°   Ceiling: 200
Heat Index: 58°   Visibility: 4mi
Dew Point: 58°   Wind: 9mph
Humidity: 100%   Direction: 30°NNE
Pressure: 29.99"   Gusts: NA
Location:  35.35°N, 75.51°W
Report Text: KHSE 260603Z AUTO 03008KT 4SM -RA BR BKN002 BKN030 OVC070 14/14 A2999 RMK AO2 P0002 T01440144 TSNO
Loading
Personal Weather Stations






























Interactive Weather Map New forecast layout! Learn more

10-Day Weather Forecast

Advertisements
Track Severe Weather on mobile